createdAt,value
2023-09-24T00:00:14.911Z,8.13
2023-09-24T00:03:40.178Z,7.55
2023-09-24T00:06:13.391Z,7.00
2023-09-24T00:08:53.134Z,9.38
2023-09-24T00:11:23.788Z,7.93
2023-09-24T00:13:52.134Z,7.10
2023-09-24T00:16:58.299Z,7.85
2023-09-24T00:20:05.582Z,9.00
2023-09-24T00:23:00.479Z,8.65
2023-09-24T00:25:55.650Z,8.73
2023-09-24T00:28:36.669Z,12.35
2023-09-24T00:31:05.145Z,8.30
2023-09-24T00:33:32.538Z,9.88
2023-09-24T00:36:00.979Z,14.23
2023-09-24T00:42:13.534Z,9.68
2023-09-24T00:45:10.311Z,10.45
2023-09-24T00:47:48.224Z,13.82
2023-09-24T00:50:43.531Z,9.05
2023-09-24T00:53:39.394Z,14.77
2023-09-24T00:59:33.914Z,11.35
2023-09-24T01:02:08.538Z,11.30
2023-09-24T01:04:59.558Z,7.82
2023-09-24T01:07:35.799Z,7.25
2023-09-24T01:10:12.765Z,7.97
2023-09-24T01:13:24.605Z,8.57
2023-09-24T01:16:44.381Z,8.90
2023-09-24T01:19:46.250Z,7.90
2023-09-24T01:22:15.351Z,4.43
2023-09-24T01:24:44.980Z,5.90
2023-09-24T01:27:14.133Z,6.00
2023-09-24T01:29:42.349Z,6.43
2023-09-24T01:32:10.162Z,6.32
2023-09-24T01:34:37.793Z,6.20
2023-09-24T01:37:10.382Z,7.55
2023-09-24T01:39:42.276Z,8.23
2023-09-24T01:42:14.964Z,9.23
2023-09-24T01:44:42.902Z,7.10
2023-09-24T01:47:10.169Z,10.05
2023-09-24T01:49:37.664Z,9.02
2023-09-24T01:52:06.135Z,6.63
2023-09-24T01:54:33.489Z,7.38
2023-09-24T01:57:02.596Z,6.90
2023-09-24T01:59:30.201Z,5.85
2023-09-24T02:02:00.705Z,8.80
2023-09-24T02:04:29.366Z,7.35
2023-09-24T02:07:06.053Z,7.18
2023-09-24T02:09:34.033Z,7.15
2023-09-24T02:12:09.451Z,8.00
2023-09-24T02:14:45.571Z,5.78
2023-09-24T02:17:15.383Z,4.78
2023-09-24T02:19:46.134Z,7.43
2023-09-24T02:22:13.694Z,5.78
2023-09-24T02:24:44.751Z,6.60
2023-09-24T02:27:13.744Z,5.60
2023-09-24T02:29:41.752Z,6.22
2023-09-24T02:32:09.229Z,6.35
2023-09-24T02:34:37.397Z,7.25
2023-09-24T02:37:07.546Z,6.93
2023-09-24T02:39:38.272Z,4.22
2023-09-24T02:42:11.659Z,10.32
2023-09-24T02:44:52.725Z,7.03
2023-09-24T02:47:22.618Z,7.03
2023-09-24T02:49:50.092Z,5.45
2023-09-24T02:52:19.506Z,7.40
2023-09-24T02:54:46.760Z,7.30
2023-09-24T02:57:14.030Z,6.55
2023-09-24T02:59:42.679Z,8.05
2023-09-24T03:02:12.674Z,6.40
2023-09-24T03:04:39.984Z,6.38
2023-09-24T03:07:12.036Z,11.43
2023-09-24T03:09:38.889Z,6.90
2023-09-24T03:12:07.988Z,9.68
2023-09-24T03:14:34.869Z,6.15
2023-09-24T03:17:03.701Z,5.60
2023-09-24T03:19:30.707Z,7.68
2023-09-24T03:21:57.955Z,9.65
2023-09-24T03:24:24.907Z,7.35
2023-09-24T03:26:52.118Z,8.68
2023-09-24T03:29:20.678Z,8.15
2023-09-24T03:31:47.732Z,7.75
2023-09-24T03:34:16.160Z,6.28
2023-09-24T03:36:43.367Z,8.02
2023-09-24T03:39:11.172Z,6.30
2023-09-24T03:44:08.704Z,6.80
2023-09-24T03:46:42.098Z,5.68
2023-09-24T03:49:09.293Z,6.63
2023-09-24T03:51:40.956Z,6.88
2023-09-24T03:54:10.201Z,8.20
2023-09-24T03:56:46.922Z,4.70
2023-09-24T03:59:14.104Z,7.25
2023-09-24T04:01:41.299Z,4.68
2023-09-24T04:04:13.533Z,5.32
2023-09-24T04:06:46.411Z,6.90
2023-09-24T04:09:22.506Z,8.63
2023-09-24T04:11:50.901Z,5.43
2023-09-24T04:14:17.951Z,3.47
2023-09-24T04:16:44.962Z,7.15
2023-09-24T04:19:12.437Z,6.55
2023-09-24T04:21:39.670Z,5.25
2023-09-24T04:24:08.207Z,6.05
2023-09-24T04:26:35.716Z,6.63
2023-09-24T04:29:03.216Z,8.93
2023-09-24T04:31:30.381Z,9.20
2023-09-24T04:33:58.856Z,8.82
2023-09-24T04:36:27.379Z,9.85
2023-09-24T04:38:54.585Z,8.18
2023-09-24T04:41:23.181Z,8.52
2023-09-24T04:43:50.171Z,11.07
2023-09-24T04:46:17.056Z,11.02
2023-09-24T04:48:44.786Z,11.52
2023-09-24T04:51:12.334Z,10.57
2023-09-24T04:53:40.547Z,10.98
2023-09-24T04:56:08.203Z,10.50
2023-09-24T04:58:36.867Z,11.85
2023-09-24T05:01:05.467Z,12.07
2023-09-24T05:03:32.964Z,12.02
2023-09-24T05:06:02.314Z,12.50
2023-09-24T05:08:29.611Z,13.25
2023-09-24T05:10:57.430Z,11.20
2023-09-24T05:13:28.249Z,11.35
2023-09-24T05:16:29.464Z,16.77
2023-09-24T05:18:58.009Z,11.93
2023-09-24T05:24:39.772Z,13.82
2023-09-24T05:27:07.187Z,13.05
2023-09-24T05:29:57.135Z,11.38
2023-09-24T05:35:43.250Z,12.63
2023-09-24T05:38:10.771Z,11.13
2023-09-24T05:40:43.559Z,10.48
2023-09-24T05:46:52.448Z,10.35
2023-09-24T05:49:28.638Z,13.45
2023-09-24T05:52:29.740Z,14.10
2023-09-24T05:55:02.856Z,10.85
2023-09-24T05:57:54.901Z,11.30
2023-09-24T06:00:29.833Z,11.77
2023-09-24T06:02:58.096Z,10.65
2023-09-24T06:05:44.025Z,11.10
2023-09-24T06:08:12.433Z,14.20
2023-09-24T06:10:45.735Z,10.90
2023-09-24T06:13:16.451Z,11.20
2023-09-24T06:15:51.730Z,9.60
2023-09-24T06:18:28.836Z,9.38
2023-09-24T06:21:00.170Z,7.50
2023-09-24T06:23:29.074Z,8.85
2023-09-24T06:26:14.006Z,12.70
2023-09-24T06:29:11.012Z,9.23
2023-09-24T06:35:22.444Z,8.63
2023-09-24T06:38:27.289Z,8.45
2023-09-24T06:41:14.525Z,14.15
2023-09-24T06:43:55.414Z,10.05
2023-09-24T06:46:42.521Z,13.02
2023-09-24T06:49:41.120Z,12.85
2023-09-24T06:55:24.288Z,10.00
2023-09-24T06:57:53.392Z,11.60
2023-09-24T07:00:46.956Z,12.30
2023-09-24T07:03:32.998Z,8.68
2023-09-24T07:06:01.417Z,10.20
2023-09-24T07:08:28.716Z,12.90
2023-09-24T07:11:11.576Z,12.07
2023-09-24T07:13:43.157Z,9.20
2023-09-24T07:16:13.317Z,12.88
2023-09-24T07:19:12.130Z,9.40
2023-09-24T07:22:04.985Z,8.85
2023-09-24T07:24:44.398Z,9.38
2023-09-24T07:27:15.472Z,11.68
2023-09-24T07:29:52.401Z,10.27
2023-09-24T07:35:59.642Z,9.07
2023-09-24T07:38:44.098Z,12.30
2023-09-24T07:41:14.269Z,11.13
2023-09-24T07:43:43.634Z,9.00
2023-09-24T07:49:38.074Z,7.90
2023-09-24T07:56:44.779Z,7.45
2023-09-24T07:59:36.635Z,11.48
2023-09-24T08:05:05.734Z,6.60
2023-09-24T08:07:44.112Z,7.78
2023-09-24T08:10:17.641Z,6.95
2023-09-24T08:12:57.336Z,7.38
2023-09-24T08:15:56.542Z,8.23
2023-09-24T08:18:30.674Z,6.20
2023-09-24T08:21:17.824Z,6.30
2023-09-24T08:23:45.086Z,6.18
2023-09-24T08:26:45.187Z,6.20
2023-09-24T08:32:19.635Z,5.30
2023-09-24T08:35:01.856Z,7.47
2023-09-24T08:43:19.620Z,8.32
2023-09-24T08:48:48.508Z,6.13
2023-09-24T08:51:37.500Z,9.90
2023-09-24T08:54:09.392Z,5.57
2023-09-24T08:56:37.810Z,6.30
2023-09-24T08:59:41.300Z,5.93
2023-09-24T09:05:24.251Z,4.90
2023-09-24T09:07:56.983Z,4.70
2023-09-24T09:10:46.878Z,5.35
2023-09-24T09:13:56.285Z,6.72
2023-09-24T09:16:43.636Z,4.90
2023-09-24T09:23:04.931Z,3.75
2023-09-24T09:25:50.298Z,5.88
2023-09-24T09:28:36.312Z,4.57
2023-09-24T09:33:54.520Z,4.43
2023-09-24T09:36:42.450Z,6.60
2023-09-24T09:39:21.065Z,3.58
2023-09-24T09:42:09.730Z,2.88
2023-09-24T09:45:01.027Z,3.63
2023-09-24T09:47:54.377Z,5.25
2023-09-24T09:50:23.030Z,6.20
2023-09-24T09:53:07.816Z,4.95
2023-09-24T10:00:01.001Z,4.40
2023-09-24T10:05:19.763Z,5.18
2023-09-24T10:07:51.066Z,5.80
2023-09-24T10:10:50.491Z,4.50
2023-09-24T10:13:41.797Z,4.90
2023-09-24T10:16:41.714Z,6.13
2023-09-24T10:19:25.808Z,3.65
2023-09-24T10:38:09.509Z,4.53
2023-09-24T10:41:08.857Z,4.28
2023-09-24T10:43:46.733Z,4.38
2023-09-24T10:47:25.960Z,4.10
2023-09-24T10:57:27.822Z,4.00
2023-09-24T11:03:55.267Z,4.30
2023-09-24T11:07:37.154Z,4.03
2023-09-24T11:10:03.900Z,6.90
2023-09-24T11:12:41.827Z,6.70
2023-09-24T11:15:19.349Z,4.20
2023-09-24T11:18:01.238Z,3.25
2023-09-24T11:21:23.597Z,5.63
2023-09-24T11:27:51.518Z,3.35
2023-09-24T11:34:01.089Z,4.82
2023-09-24T11:39:38.729Z,6.15
2023-09-24T11:42:24.343Z,7.55
2023-09-24T11:45:40.661Z,3.67
2023-09-24T11:48:21.564Z,3.78
2023-09-24T11:50:58.222Z,5.85
2023-09-24T11:53:32.687Z,4.38
2023-09-24T11:59:14.399Z,7.60
2023-09-24T12:01:57.210Z,3.75
2023-09-24T12:04:31.162Z,3.58
2023-09-24T12:07:15.561Z,5.25
2023-09-24T12:12:43.237Z,4.00
2023-09-24T12:18:12.929Z,3.55
2023-09-24T12:20:53.245Z,3.63
2023-09-24T12:24:07.425Z,6.35
2023-09-24T12:26:44.861Z,4.47
2023-09-24T12:29:11.997Z,5.95
2023-09-24T12:34:31.214Z,5.60
2023-09-24T12:37:10.700Z,4.10
2023-09-24T12:42:50.268Z,4.90
2023-09-24T12:45:30.313Z,6.47
2023-09-24T12:52:38.732Z,4.25
2023-09-24T12:55:09.381Z,2.70
2023-09-24T12:58:05.820Z,4.82
2023-09-24T13:01:15.313Z,3.92
2023-09-24T13:03:59.079Z,4.75
2023-09-24T13:06:32.793Z,6.18
2023-09-24T13:09:02.368Z,5.18
2023-09-24T13:11:31.975Z,5.72
2023-09-24T13:17:26.267Z,3.53
2023-09-24T13:20:34.795Z,4.05
2023-09-24T13:23:39.332Z,4.60
2023-09-24T13:29:06.405Z,4.18
2023-09-24T13:31:48.758Z,4.15
2023-09-24T13:34:54.317Z,6.18
2023-09-24T13:37:23.506Z,6.93
2023-09-24T13:39:54.098Z,3.78
2023-09-24T13:42:22.173Z,4.53
2023-09-24T13:44:53.119Z,6.03
2023-09-24T13:47:41.050Z,5.20
2023-09-24T13:50:33.052Z,5.55
2023-09-24T13:53:01.658Z,3.83
2023-09-24T13:55:29.017Z,3.15
2023-09-24T13:57:58.922Z,4.47
2023-09-24T14:01:11.466Z,3.40
2023-09-24T14:03:55.240Z,6.30
2023-09-24T14:06:24.047Z,4.95
2023-09-24T14:09:13.958Z,2.85
2023-09-24T14:11:59.734Z,5.70
2023-09-24T14:14:32.957Z,5.53
2023-09-24T14:20:08.938Z,3.58
2023-09-24T14:22:52.792Z,4.70
2023-09-24T14:25:23.709Z,5.97
2023-09-24T14:28:15.783Z,5.35
2023-09-24T14:31:10.783Z,4.88
2023-09-24T14:34:00.238Z,3.35
2023-09-24T14:36:54.715Z,4.25
2023-09-24T14:39:41.859Z,5.80
2023-09-24T14:42:09.083Z,5.57
2023-09-24T14:44:39.176Z,6.15
2023-09-24T14:47:48.788Z,2.85
2023-09-24T14:50:08.273Z,4.45
2023-09-24T14:54:00.304Z,5.00
2023-09-24T14:56:46.005Z,4.78
2023-09-24T14:59:37.103Z,4.57
2023-09-24T15:02:17.713Z,3.88
2023-09-24T15:04:48.842Z,4.95
2023-09-24T15:07:34.714Z,3.83
2023-09-24T15:10:22.422Z,6.43
2023-09-24T15:13:46.398Z,5.22
2023-09-24T15:16:32.631Z,4.07
2023-09-24T15:19:24.666Z,4.40
2023-09-24T15:22:11.020Z,5.55
2023-09-24T15:25:08.826Z,4.18
2023-09-24T15:31:09.371Z,4.57
2023-09-24T15:33:52.170Z,4.05
2023-09-24T15:39:02.463Z,2.95
2023-09-24T15:41:33.490Z,3.28
2023-09-24T15:44:05.574Z,3.55
2023-09-24T15:46:35.054Z,4.63
2023-09-24T15:49:02.277Z,4.40
2023-09-24T15:54:51.930Z,4.30
2023-09-24T15:57:19.120Z,4.50
2023-09-24T15:59:46.236Z,6.10
2023-09-24T16:02:16.615Z,3.58
2023-09-24T16:04:49.483Z,4.45
2023-09-24T16:07:17.018Z,4.95
2023-09-24T16:09:48.986Z,4.50
2023-09-24T16:15:45.044Z,4.00
2023-09-24T16:18:11.917Z,3.58
2023-09-24T16:20:46.934Z,4.88
2023-09-24T16:23:14.718Z,6.75
2023-09-24T16:25:43.233Z,4.18
2023-09-24T16:28:10.392Z,6.38
2023-09-24T16:30:40.003Z,7.40
2023-09-24T16:33:10.883Z,7.47
2023-09-24T16:35:57.470Z,5.13
2023-09-24T16:38:25.869Z,7.53
2023-09-24T16:40:58.134Z,4.68
2023-09-24T16:43:25.242Z,6.18
2023-09-24T16:46:56.947Z,5.78
2023-09-24T16:49:58.548Z,10.40
2023-09-24T16:52:36.145Z,6.30
2023-09-24T16:55:03.072Z,4.93
2023-09-24T16:57:44.042Z,7.28
2023-09-24T17:00:13.750Z,6.30
2023-09-24T17:02:43.521Z,7.07
2023-09-24T17:05:18.119Z,6.32
2023-09-24T17:07:45.757Z,8.32
2023-09-24T17:12:43.289Z,3.15
2023-09-24T17:15:10.806Z,6.40
2023-09-24T17:17:37.957Z,4.55
2023-09-24T17:20:05.675Z,5.30
2023-09-24T17:25:00.565Z,6.63
2023-09-24T17:27:28.083Z,3.95
2023-09-24T17:29:56.980Z,4.90
2023-09-24T17:32:25.092Z,6.53
2023-09-24T17:34:53.814Z,6.60
2023-09-24T17:37:21.148Z,4.10
2023-09-24T17:39:48.117Z,9.80
2023-09-24T17:42:15.233Z,5.55
2023-09-24T17:44:45.877Z,7.53
2023-09-24T17:47:14.533Z,4.65
2023-09-24T17:49:41.634Z,5.32
2023-09-24T17:52:09.370Z,5.00
2023-09-24T17:54:48.916Z,6.18
2023-09-24T17:57:39.456Z,6.03
2023-09-24T18:00:10.207Z,6.70
2023-09-24T18:03:00.681Z,6.22
2023-09-24T18:05:41.981Z,6.82
2023-09-24T18:08:17.064Z,7.28
2023-09-24T18:10:50.728Z,5.13
2023-09-24T18:13:49.190Z,4.65
2023-09-24T18:19:21.159Z,4.20
2023-09-24T18:21:57.180Z,7.03
2023-09-24T18:24:57.022Z,4.00
2023-09-24T18:27:34.396Z,7.28
2023-09-24T18:30:01.995Z,5.13
2023-09-24T18:32:29.256Z,4.65
2023-09-24T18:35:20.030Z,5.15
2023-09-24T18:37:51.480Z,7.90
2023-09-24T18:40:26.515Z,5.88
2023-09-24T18:42:53.817Z,7.80
2023-09-24T18:48:21.029Z,8.40
2023-09-24T18:50:52.315Z,8.98
2023-09-24T18:53:24.100Z,9.23
2023-09-24T18:56:00.890Z,8.60
2023-09-24T18:58:28.271Z,7.15
2023-09-24T19:01:33.759Z,8.10
2023-09-24T19:04:37.550Z,6.60
2023-09-24T19:07:31.770Z,8.85
2023-09-24T19:16:30.475Z,4.35
2023-09-24T19:19:00.440Z,4.95
2023-09-24T19:24:24.915Z,4.75
2023-09-24T19:27:04.302Z,5.90
2023-09-24T19:29:53.134Z,5.28
2023-09-24T19:37:49.632Z,7.05
2023-09-24T19:40:18.077Z,3.80
2023-09-24T19:43:09.216Z,4.85
2023-09-24T19:45:56.230Z,5.20
2023-09-24T19:51:48.222Z,5.30
2023-09-24T19:54:38.959Z,5.90
2023-09-24T19:57:06.260Z,4.53
2023-09-24T19:59:45.807Z,4.93
2023-09-24T20:02:17.762Z,3.53
2023-09-24T20:04:44.842Z,5.63
2023-09-24T20:10:19.618Z,6.40
2023-09-24T20:12:59.081Z,4.60
2023-09-24T20:15:47.916Z,3.67
2023-09-24T20:18:54.428Z,5.93
2023-09-24T20:21:25.092Z,4.50
2023-09-24T20:23:55.827Z,5.88
2023-09-24T20:26:22.951Z,4.60
2023-09-24T20:28:50.133Z,4.25
2023-09-24T20:31:52.810Z,10.55
2023-09-24T20:34:35.948Z,6.57
2023-09-24T20:37:20.878Z,3.92
2023-09-24T20:40:01.335Z,5.00
2023-09-24T20:49:11.789Z,6.85
2023-09-24T20:54:53.692Z,3.95
2023-09-24T20:57:26.442Z,4.55
2023-09-24T21:06:57.391Z,3.30
2023-09-24T21:09:24.675Z,4.43
2023-09-24T21:12:13.217Z,4.25
2023-09-24T21:14:46.554Z,4.00
2023-09-24T21:17:25.060Z,3.65
2023-09-24T21:20:08.635Z,4.45
2023-09-24T21:22:50.550Z,5.43
2023-09-24T21:26:03.601Z,4.53
2023-09-24T21:29:18.278Z,5.63
2023-09-24T21:31:51.489Z,4.45
2023-09-24T21:34:43.950Z,5.05
2023-09-24T21:37:23.196Z,3.55
2023-09-24T21:39:50.436Z,3.88
2023-09-24T21:42:17.368Z,4.25
2023-09-24T21:44:45.052Z,3.65
2023-09-24T21:47:28.115Z,5.15
2023-09-24T21:49:55.334Z,3.42
2023-09-24T21:52:23.584Z,3.50
2023-09-24T21:55:01.900Z,3.72
2023-09-24T21:58:03.997Z,6.32
2023-09-24T22:00:43.710Z,3.83
2023-09-24T22:06:03.968Z,3.80
2023-09-24T22:08:54.280Z,5.10
2023-09-24T22:11:57.017Z,3.50
2023-09-24T22:14:24.147Z,4.32
2023-09-24T22:16:54.281Z,4.43
2023-09-24T22:19:22.750Z,4.18
2023-09-24T22:21:52.935Z,4.05
2023-09-24T22:24:20.233Z,4.30
2023-09-24T22:26:47.254Z,3.92
2023-09-24T22:29:14.127Z,3.22
2023-09-24T22:31:40.971Z,4.95
2023-09-24T22:34:07.902Z,4.90
2023-09-24T22:36:36.392Z,4.78
2023-09-24T22:39:03.372Z,3.25
2023-09-24T22:41:30.791Z,3.85
2023-09-24T22:43:57.745Z,4.82
2023-09-24T22:46:27.796Z,2.95
2023-09-24T22:48:55.877Z,5.07
2023-09-24T22:51:23.214Z,4.70
2023-09-24T22:53:51.596Z,3.33
2023-09-24T22:56:23.615Z,9.65
2023-09-24T22:58:53.124Z,4.78
2023-09-24T23:01:24.032Z,4.28
2023-09-24T23:03:51.669Z,4.68
2023-09-24T23:06:21.866Z,4.60
2023-09-24T23:09:15.725Z,5.85
2023-09-24T23:12:24.108Z,2.72
2023-09-24T23:15:09.216Z,4.40
2023-09-24T23:20:28.246Z,3.88
2023-09-24T23:23:16.816Z,5.03
2023-09-24T23:28:18.291Z,4.38
2023-09-24T23:30:46.735Z,4.18
2023-09-24T23:33:28.720Z,5.20
2023-09-24T23:35:57.671Z,5.25
2023-09-24T23:38:28.528Z,3.28
2023-09-24T23:40:58.112Z,3.58
2023-09-24T23:43:25.093Z,4.40
2023-09-24T23:45:52.158Z,4.78
2023-09-24T23:48:22.393Z,3.55
2023-09-24T23:50:49.437Z,3.53
2023-09-24T23:53:19.012Z,3.88
2023-09-24T23:55:47.316Z,6.65
2023-09-24T23:58:14.615Z,4.20
